Time;durP1;ratioP1;P1;durP2;ratioP2;P2;SDS_P1;SDS_P2;PMS_P1;PMS_P2;Temp;Humidity;BMP_temperature;BMP_pressure;BME280_temperature;BME280_humidity;BME280_pressure;Samples;Min_cycle;Max_cycle;Signal;HPM_P1;HPM_P2
2023/01/05 00:01:20;;;;;;;5.88;1.35;;;;;;;13.24;71.11;100364.75;4947614;28;98950;-72
2023/01/05 00:03:47;;;;;;;11.25;1.45;;;;;;;13.28;70.52;100356.56;4940199;28;101377;-71
2023/01/05 00:06:16;;;;;;;8.68;1.45;;;;;;;13.27;70.30;100354.84;4947042;28;97716;-71
2023/01/05 00:08:43;;;;;;;7.00;0.93;;;;;;;13.16;70.48;100355.41;4950323;28;97054;-72
2023/01/05 00:22:30;;;;;;;5.35;0.82;;;;;;;12.86;69.51;100356.97;4942523;28;97332;-71
2023/01/05 00:24:57;;;;;;;12.98;1.60;;;;;;;12.96;69.18;100355.53;4947748;28;97716;-71
2023/01/05 00:27:24;;;;;;;8.75;1.52;;;;;;;12.83;69.50;100358.91;4948656;28;96800;-73
2023/01/05 00:29:51;;;;;;;9.80;1.55;;;;;;;12.87;69.31;100368.41;4949218;28;96850;-71
2023/01/05 00:32:17;;;;;;;9.82;1.15;;;;;;;13.24;68.54;100370.94;4944933;28;99573;-71
2023/01/05 00:34:44;;;;;;;10.25;1.83;;;;;;;13.40;67.37;100371.81;4942466;28;98993;-71
2023/01/05 00:37:10;;;;;;;7.40;1.20;;;;;;;13.27;67.91;100361.94;4943285;28;96790;-71
2023/01/05 00:39:37;;;;;;;9.05;1.42;;;;;;;13.46;67.42;100368.84;4948037;28;97126;-70
2023/01/05 00:42:03;;;;;;;11.45;1.75;;;;;;;13.34;67.42;100363.34;4949605;28;98884;-71
2023/01/05 00:44:31;;;;;;;5.68;1.17;;;;;;;13.50;67.37;100372.22;4947014;28;100302;-72
2023/01/05 00:46:58;;;;;;;7.85;1.35;;;;;;;13.38;67.18;100356.94;4946797;28;97842;-73
2023/01/05 00:49:24;;;;;;;9.07;1.40;;;;;;;13.43;67.18;100350.44;4951260;28;97582;-72
2023/01/05 00:51:50;;;;;;;12.10;2.00;;;;;;;13.29;67.85;100352.09;4946721;28;98967;-72
2023/01/05 00:54:17;;;;;;;10.18;1.50;;;;;;;13.34;67.71;100358.88;4948552;28;99312;-72
2023/01/05 00:56:43;;;;;;;13.93;1.80;;;;;;;13.54;66.90;100369.28;4948351;28;98626;-72
2023/01/05 00:59:10;;;;;;;11.27;1.30;;;;;;;13.37;67.24;100361.38;4948321;28;97007;-71
2023/01/05 01:01:37;;;;;;;14.38;2.88;;;;;;;13.25;67.81;100351.44;4943545;28;100339;-71
2023/01/05 01:04:04;;;;;;;11.10;1.63;;;;;;;13.28;67.71;100353.03;4941021;28;99064;-71
2023/01/05 01:06:30;;;;;;;9.18;1.25;;;;;;;13.29;67.16;100357.41;4947449;28;98520;-72
2023/01/05 01:08:58;;;;;;;8.70;1.75;;;;;;;13.31;67.21;100355.53;4944782;28;96842;-71
2023/01/05 01:11:25;;;;;;;10.13;1.60;;;;;;;13.22;67.79;100364.84;4941690;28;98974;-72
2023/01/05 01:13:51;;;;;;;11.73;1.85;;;;;;;13.24;67.59;100360.31;4947626;28;99591;-71
2023/01/05 01:16:18;;;;;;;10.45;1.80;;;;;;;13.48;66.70;100368.78;4945689;28;96886;-72
2023/01/05 01:18:45;;;;;;;11.05;1.67;;;;;;;13.32;66.71;100360.78;4943588;28;97431;-71
2023/01/05 01:21:12;;;;;;;11.40;2.10;;;;;;;13.15;67.42;100355.47;4948037;28;101436;-71
2023/01/05 01:23:38;;;;;;;8.57;1.73;;;;;;;13.36;67.23;100358.81;4945108;28;98911;-72
2023/01/05 01:26:05;;;;;;;12.07;2.03;;;;;;;13.56;66.25;100361.25;4945551;28;96908;-72
2023/01/05 01:28:32;;;;;;;11.73;2.15;;;;;;;13.44;66.56;100367.22;4943980;28;96899;-71
2023/01/05 01:30:58;;;;;;;12.10;1.55;;;;;;;13.28;66.67;100363.66;4947206;28;98962;-73
2023/01/05 01:33:25;;;;;;;8.82;1.55;;;;;;;13.47;66.76;100373.22;4943914;28;98860;-71
2023/01/05 01:35:56;;;;;;;12.75;1.83;;;;;;;13.41;66.39;100351.44;4946370;28;96780;-71
2023/01/05 01:38:23;;;;;;;11.48;1.50;;;;;;;13.41;66.60;100362.06;4947580;28;96866;-71
2023/01/05 01:40:50;;;;;;;7.18;1.17;;;;;;;13.49;66.26;100346.59;4947675;28;99078;-72
2023/01/05 01:43:19;;;;;;;14.50;1.90;;;;;;;13.44;66.62;100361.91;4948442;28;98932;-71
2023/01/05 01:45:45;;;;;;;11.98;1.50;;;;;;;13.10;67.32;100363.66;4947617;28;96866;-71
2023/01/05 01:48:16;;;;;;;12.35;1.90;;;;;;;13.15;67.62;100363.44;4944114;28;97020;-71
2023/01/05 01:50:46;;;;;;;9.25;1.30;;;;;;;13.04;67.36;100371.94;4947741;28;99395;-71
2023/01/05 01:53:20;;;;;;;10.60;1.52;;;;;;;13.15;67.26;100366.94;4947137;28;96852;-71
2023/01/05 01:55:47;;;;;;;11.02;1.38;;;;;;;13.28;66.89;100376.91;4948065;28;96864;-70
2023/01/05 01:58:17;;;;;;;12.15;1.70;;;;;;;13.42;65.77;100366.44;4946180;28;98967;-72
2023/01/05 02:00:44;;;;;;;7.13;1.08;;;;;;;13.49;65.72;100368.69;4943544;28;98892;-72
2023/01/05 02:03:10;;;;;;;8.38;1.52;;;;;;;13.77;64.90;100367.22;4945140;28;99187;-72
2023/01/05 02:05:37;;;;;;;8.90;1.45;;;;;;;13.65;64.54;100360.78;4943245;28;97496;-71
2023/01/05 02:08:09;;;;;;;4.88;1.05;;;;;;;13.38;65.69;100357.81;4947256;28;98388;-72
2023/01/05 02:10:57;;;;;;;6.10;1.15;;;;;;;13.25;66.30;100366.50;4946400;28;101352;-72
2023/01/05 02:13:43;;;;;;;10.52;1.30;;;;;;;13.56;65.30;100363.91;4947559;28;101195;-72
2023/01/05 02:16:23;;;;;;;9.15;1.40;;;;;;;13.64;64.90;100351.09;4946981;28;97236;-72
2023/01/05 02:19:05;;;;;;;6.55;1.05;;;;;;;13.90;63.69;100361.16;4948139;28;98745;-72
2023/01/05 02:21:45;;;;;;;7.85;1.25;;;;;;;13.84;64.39;100364.13;4943134;28;99478;-72
2023/01/05 02:24:53;;;;;;;9.90;1.40;;;;;;;13.38;65.58;100352.50;4945585;28;99032;-71
2023/01/05 02:27:52;;;;;;;9.75;1.23;;;;;;;13.23;66.39;100352.44;4947551;28;98859;-73
2023/01/05 02:30:58;;;;;;;8.35;1.27;;;;;;;13.28;66.11;100345.06;4930348;28;97058;-71
2023/01/05 02:33:38;;;;;;;7.35;1.30;;;;;;;13.35;65.53;100342.03;4942735;28;99056;-72
2023/01/05 02:36:14;;;;;;;11.45;1.52;;;;;;;13.36;65.76;100348.19;4939371;28;99301;-72
2023/01/05 02:38:48;;;;;;;12.43;1.63;;;;;;;13.30;65.04;100343.22;4944404;28;97512;-72
2023/01/05 02:41:21;;;;;;;9.70;1.40;;;;;;;12.98;66.62;100342.22;4944097;28;97131;-72
2023/01/05 02:43:48;;;;;;;9.15;1.70;;;;;;;13.05;66.69;100339.16;4947989;28;98038;-73
2023/01/05 02:46:16;;;;;;;7.88;1.40;;;;;;;12.84;66.67;100334.09;4944079;28;99183;-72
2023/01/05 02:48:45;;;;;;;9.60;1.40;;;;;;;12.89;67.04;100345.31;4950137;28;97240;-72
2023/01/05 02:51:16;;;;;;;8.48;1.75;;;;;;;13.21;65.83;100338.38;4950556;28;97914;-71
2023/01/05 02:53:46;;;;;;;13.05;1.60;;;;;;;13.02;65.86;100338.47;4950347;28;99348;-72
2023/01/05 02:56:16;;;;;;;7.10;1.02;;;;;;;13.15;65.69;100339.56;4949960;28;98953;-72
2023/01/05 02:58:46;;;;;;;6.30;1.27;;;;;;;13.27;65.37;100343.34;4949208;28;98707;-72
2023/01/05 03:01:20;;;;;;;11.23;1.60;;;;;;;12.95;66.28;100335.25;4946199;28;97048;-72
2023/01/05 03:03:51;;;;;;;9.38;1.20;;;;;;;13.16;65.10;100339.50;4942940;28;99736;-72
2023/01/05 03:06:23;;;;;;;6.05;1.27;;;;;;;13.01;65.68;100350.00;4945190;28;101697;-72
2023/01/05 03:08:53;;;;;;;8.07;1.48;;;;;;;12.97;65.62;100346.66;4949809;28;96981;-71
2023/01/05 03:14:10;;;;;;;6.15;1.10;;;;;;;12.82;65.24;100341.28;4946808;28;97328;-71
2023/01/05 03:16:38;;;;;;;6.32;1.20;;;;;;;12.82;65.54;100343.91;4949104;28;98797;-72
2023/01/05 03:35:59;;;;;;;6.65;1.15;;;;;;;13.14;63.90;100343.16;4949170;28;97241;-72
2023/01/05 03:38:30;;;;;;;6.60;1.00;;;;;;;13.24;63.64;100355.00;4952003;28;99386;-72
2023/01/05 03:41:00;;;;;;;7.55;1.17;;;;;;;13.07;63.64;100355.84;4944675;28;97157;-71
2023/01/05 03:43:27;;;;;;;4.30;1.17;;;;;;;13.06;64.21;100353.28;4950873;28;96867;-72
2023/01/05 03:45:55;;;;;;;8.30;1.33;;;;;;;13.45;63.17;100348.56;4947982;28;101329;-72
2023/01/05 03:48:24;;;;;;;11.13;1.73;;;;;;;13.31;62.95;100355.53;4951676;28;99104;-72
2023/01/05 03:50:50;;;;;;;6.68;1.38;;;;;;;13.60;62.41;100349.53;4947980;28;96900;-74
2023/01/05 03:53:17;;;;;;;5.18;1.02;;;;;;;13.28;62.65;100353.91;4948936;28;97187;-71
2023/01/05 03:55:44;;;;;;;9.65;1.55;;;;;;;13.16;63.97;100355.41;4947611;28;100458;-71
2023/01/05 03:58:10;;;;;;;6.38;0.90;;;;;;;12.84;65.34;100342.91;4951917;28;98812;-72
2023/01/05 04:00:37;;;;;;;2.38;0.70;;;;;;;12.98;65.21;100352.81;4950417;28;98796;-70
2023/01/05 04:03:03;;;;;;;6.80;1.17;;;;;;;13.15;64.65;100356.34;4949695;28;96857;-71
2023/01/05 04:05:31;;;;;;;5.07;1.05;;;;;;;13.40;64.36;100370.97;4945682;28;99217;-72
2023/01/05 04:07:57;;;;;;;4.82;0.88;;;;;;;13.45;63.68;100368.94;4951290;28;98992;-72
2023/01/05 04:10:24;;;;;;;7.07;1.00;;;;;;;13.31;64.58;100367.03;4945918;28;96890;-72
2023/01/05 04:12:50;;;;;;;6.82;1.10;;;;;;;13.11;64.51;100375.97;4951171;28;97426;-72
2023/01/05 04:15:17;;;;;;;5.13;0.88;;;;;;;13.14;65.02;100375.84;4948383;28;99545;-71
2023/01/05 04:17:43;;;;;;;5.78;0.90;;;;;;;13.02;65.44;100381.75;4950651;28;99073;-71
2023/01/05 04:20:11;;;;;;;7.93;1.15;;;;;;;13.20;65.23;100379.09;4948325;28;97706;-71
2023/01/05 04:22:38;;;;;;;8.10;1.40;;;;;;;13.36;64.36;100383.56;4950521;28;96808;-71
2023/01/05 04:25:06;;;;;;;6.95;1.05;;;;;;;13.65;64.41;100395.28;4954481;28;98818;-73
2023/01/05 04:27:32;;;;;;;4.63;0.90;;;;;;;13.33;66.63;100406.72;4947623;28;99091;-71
2023/01/05 04:29:59;;;;;;;7.40;1.00;;;;;;;13.38;66.99;100388.78;4954814;28;97316;-71
2023/01/05 04:32:25;;;;;;;4.45;1.13;;;;;;;13.38;67.39;100402.91;4950400;28;97816;-73
2023/01/05 04:34:52;;;;;;;10.40;1.63;;;;;;;13.34;67.46;100405.78;4951150;28;101745;-73
2023/01/05 04:37:18;;;;;;;11.15;1.30;;;;;;;13.61;66.67;100398.16;4948264;28;99374;-72
2023/01/05 04:39:46;;;;;;;6.60;0.90;;;;;;;13.40;66.50;100395.72;4943245;28;96922;-73
2023/01/05 04:42:13;;;;;;;3.97;0.90;;;;;;;12.94;67.27;100391.88;4949296;28;97623;-73
2023/01/05 04:44:40;;;;;;;5.07;1.25;;;;;;;12.97;67.62;100405.00;4950896;28;99322;-72
2023/01/05 04:47:06;;;;;;;10.13;1.17;;;;;;;13.12;66.85;100395.41;4950495;28;99206;-72
2023/01/05 04:49:33;;;;;;;6.47;1.15;;;;;;;13.08;66.76;100400.00;4951460;28;96744;-71
2023/01/05 04:51:59;;;;;;;5.70;0.70;;;;;;;13.13;66.97;100403.31;4950530;28;96875;-73
2023/01/05 04:54:25;;;;;;;7.03;0.88;;;;;;;13.21;67.26;100423.28;4948021;28;98238;-72
2023/01/05 04:56:53;;;;;;;5.25;0.85;;;;;;;12.92;68.24;100428.25;4947391;28;98822;-71
2023/01/05 04:59:20;;;;;;;5.30;1.00;;;;;;;12.94;68.92;100429.00;4947294;28;98805;-72
2023/01/05 05:01:46;;;;;;;5.95;1.05;;;;;;;12.70;69.62;100425.81;4947795;28;97134;-72
2023/01/05 05:04:13;;;;;;;3.95;0.70;;;;;;;12.89;69.20;100432.84;4945125;28;98972;-72
2023/01/05 05:06:40;;;;;;;4.63;0.98;;;;;;;12.65;70.77;100429.63;4949480;28;99033;-71
2023/01/05 05:09:06;;;;;;;6.50;0.80;;;;;;;12.78;70.27;100433.38;4944289;28;99127;-71
2023/01/05 05:11:32;;;;;;;5.40;0.88;;;;;;;12.83;70.50;100436.66;4948656;28;97700;-71
2023/01/05 05:14:00;;;;;;;4.78;0.70;;;;;;;12.83;70.83;100428.69;4947318;28;99020;-71
2023/01/05 05:16:27;;;;;;;5.10;0.95;;;;;;;13.18;69.59;100428.75;4949010;28;99515;-72
2023/01/05 05:18:53;;;;;;;4.50;1.25;;;;;;;13.06;69.97;100438.16;4950443;28;97690;-72
2023/01/05 05:21:20;;;;;;;6.90;1.00;;;;;;;13.27;69.77;100436.22;4943878;28;97190;-71
2023/01/05 05:23:46;;;;;;;3.42;0.57;;;;;;;12.90;70.64;100438.06;4945710;28;99095;-71
2023/01/05 05:26:13;;;;;;;4.80;0.88;;;;;;;13.05;71.21;100439.09;4948956;28;100536;-71
2023/01/05 05:28:39;;;;;;;8.60;1.50;;;;;;;13.23;70.83;100437.34;4948042;28;96835;-71
2023/01/05 05:31:07;;;;;;;10.13;1.30;;;;;;;13.06;71.40;100430.22;4947238;28;96904;-73
2023/01/05 05:33:36;;;;;;;6.78;1.20;;;;;;;13.27;70.70;100431.78;4946127;28;102240;-71
2023/01/05 05:36:03;;;;;;;7.35;0.73;;;;;;;13.00;71.47;100436.66;4945879;28;99585;-71
2023/01/05 05:38:30;;;;;;;6.85;1.23;;;;;;;12.76;71.92;100432.59;4948096;28;97104;-71
2023/01/05 05:40:57;;;;;;;7.07;1.13;;;;;;;12.64;71.97;100438.50;4947347;28;98739;-72
2023/01/05 05:43:23;;;;;;;5.32;0.77;;;;;;;12.70;72.13;100439.06;4948432;28;99432;-71
2023/01/05 05:45:50;;;;;;;5.43;1.02;;;;;;;12.59;71.98;100436.06;4945673;28;99159;-72
2023/01/05 05:48:18;;;;;;;11.23;1.40;;;;;;;12.50;71.93;100441.81;4950558;28;96830;-73
2023/01/05 05:50:45;;;;;;;9.55;1.52;;;;;;;12.88;71.23;100431.13;4945931;28;98721;-71
2023/01/05 05:53:11;;;;;;;2.97;0.90;;;;;;;12.63;71.47;100428.81;4949249;28;98790;-72
2023/01/05 05:55:38;;;;;;;5.97;1.20;;;;;;;12.90;70.71;100427.47;4948676;28;100502;-72
2023/01/05 05:58:04;;;;;;;7.57;1.15;;;;;;;12.74;70.84;100437.97;4949741;28;97576;-72
2023/01/05 06:00:31;;;;;;;6.38;1.20;;;;;;;12.87;71.09;100451.47;4945614;28;96867;-72
2023/01/05 06:02:57;;;;;;;6.00;0.80;;;;;;;12.48;73.44;100450.75;4949221;28;99222;-72
2023/01/05 06:05:25;;;;;;;6.00;0.95;;;;;;;12.31;73.74;100478.94;4945352;28;99136;-72
2023/01/05 06:07:52;;;;;;;4.30;1.02;;;;;;;11.84;74.50;100496.13;4947995;28;96943;-73
2023/01/05 06:10:18;;;;;;;4.07;0.60;;;;;;;12.01;73.07;100496.25;4947492;28;96830;-72
2023/01/05 06:12:44;;;;;;;2.78;0.50;;;;;;;11.98;72.24;100484.00;4951841;28;99354;-71
2023/01/05 06:15:13;;;;;;;2.15;0.30;;;;;;;11.86;72.65;100484.53;4951116;28;98917;-71
2023/01/05 06:17:40;;;;;;;0.73;0.25;;;;;;;11.64;72.34;100469.63;4949893;28;98600;-71
2023/01/05 06:20:08;;;;;;;2.42;0.47;;;;;;;11.55;73.31;100479.69;4953067;28;96995;-72
2023/01/05 06:22:36;;;;;;;1.35;0.40;;;;;;;11.78;72.00;100501.69;4949060;28;98398;-72
2023/01/05 06:25:02;;;;;;;1.63;0.22;;;;;;;12.23;70.51;100504.91;4954835;28;98746;-72
2023/01/05 06:27:29;;;;;;;3.85;0.50;;;;;;;12.00;71.54;100497.16;4952829;28;98685;-71
2023/01/05 06:29:55;;;;;;;1.55;0.40;;;;;;;12.18;70.65;100500.75;4950700;28;99124;-72
2023/01/05 06:32:22;;;;;;;3.05;0.88;;;;;;;11.89;72.30;100502.91;4951611;28;98520;-71
2023/01/05 06:34:48;;;;;;;2.05;0.65;;;;;;;12.06;72.75;100501.31;4948072;28;99347;-70
2023/01/05 06:37:15;;;;;;;1.75;0.57;;;;;;;12.38;71.84;100503.34;4952037;28;96926;-71
2023/01/05 06:39:42;;;;;;;3.83;0.77;;;;;;;12.34;71.26;100505.25;4953540;28;96984;-72
2023/01/05 06:42:09;;;;;;;2.30;0.50;;;;;;;12.10;70.83;100508.19;4951701;28;99255;-71
2023/01/05 06:44:35;;;;;;;2.13;0.60;;;;;;;12.14;70.75;100520.38;4951985;28;98893;-71
2023/01/05 06:47:02;;;;;;;2.10;0.60;;;;;;;11.99;71.08;100503.38;4951719;28;96987;-72
2023/01/05 06:49:29;;;;;;;2.25;0.40;;;;;;;12.24;70.79;100508.41;4953753;28;98870;-73
2023/01/05 06:51:55;;;;;;;2.92;0.85;;;;;;;12.21;70.06;100520.00;4952070;28;98885;-75
2023/01/05 06:54:21;;;;;;;2.88;0.60;;;;;;;12.38;69.57;100529.84;4951755;28;99234;-73
2023/01/05 06:56:49;;;;;;;3.15;0.63;;;;;;;12.62;68.94;100535.78;4949852;28;98794;-71
2023/01/05 06:59:16;;;;;;;2.40;0.73;;;;;;;12.81;68.05;100531.31;4949615;28;97731;-74
2023/01/05 07:01:42;;;;;;;3.55;0.93;;;;;;;12.83;67.71;100540.06;4950868;28;99056;-74
2023/01/05 07:04:09;;;;;;;3.47;0.70;;;;;;;12.95;66.67;100538.59;4946934;28;99633;-72
2023/01/05 07:06:35;;;;;;;4.38;0.85;;;;;;;12.86;66.94;100537.28;4947027;28;96823;-72
2023/01/05 07:09:02;;;;;;;3.95;0.80;;;;;;;12.93;67.31;100548.44;4953074;28;97606;-74
2023/01/05 07:11:29;;;;;;;3.03;0.75;;;;;;;13.08;66.44;100535.28;4949826;28;99534;-72
2023/01/05 07:13:57;;;;;;;3.17;0.80;;;;;;;12.47;66.22;100536.50;4944714;28;98790;-74
2023/01/05 07:16:23;;;;;;;5.25;0.75;;;;;;;12.76;66.03;100543.94;4949131;28;97030;-73
2023/01/05 07:18:49;;;;;;;1.17;0.73;;;;;;;12.23;66.05;100544.66;4950346;28;97416;-73
2023/01/05 07:21:16;;;;;;;2.13;0.40;;;;;;;12.05;67.64;100557.84;4948089;28;99449;-73
2023/01/05 07:23:42;;;;;;;2.47;0.43;;;;;;;11.88;68.44;100562.09;4945051;28;99081;-72
2023/01/05 07:26:09;;;;;;;1.17;0.82;;;;;;;12.08;68.21;100563.03;4948715;28;96767;-72
2023/01/05 07:28:38;;;;;;;1.08;0.45;;;;;;;12.19;66.91;100555.47;4949823;28;96871;-72
2023/01/05 07:31:07;;;;;;;2.17;0.38;;;;;;;11.93;66.80;100561.91;4945016;28;99046;-73
2023/01/05 07:33:33;;;;;;;0.65;0.47;;;;;;;12.28;65.54;100560.31;4947332;28;100500;-73
2023/01/05 07:36:01;;;;;;;4.00;0.50;;;;;;;12.13;65.69;100569.84;4943828;28;97098;-73
2023/01/05 07:38:27;;;;;;;1.48;0.35;;;;;;;12.11;66.66;100582.28;4949007;28;96937;-73
2023/01/05 07:40:54;;;;;;;2.10;0.43;;;;;;;12.20;64.78;100576.59;4946466;28;100918;-73
2023/01/05 07:43:20;;;;;;;0.30;0.30;;;;;;;12.29;65.25;100596.50;4951441;28;98924;-75
2023/01/05 07:45:47;;;;;;;0.93;0.50;;;;;;;12.12;65.41;100586.66;4951422;28;97032;-74
2023/01/05 07:48:14;;;;;;;2.17;0.40;;;;;;;12.33;64.03;100593.66;4951884;28;97247;-73
2023/01/05 07:50:41;;;;;;;1.10;0.38;;;;;;;12.23;63.94;100594.13;4946881;28;102322;-72
2023/01/05 07:53:08;;;;;;;1.90;0.50;;;;;;;11.77;65.63;100603.19;4953285;28;99376;-73
2023/01/05 07:55:34;;;;;;;0.63;0.20;;;;;;;11.79;66.11;100606.66;4951954;28;96791;-74
2023/01/05 07:58:01;;;;;;;1.25;0.30;;;;;;;12.01;64.38;100598.66;4953281;28;96843;-71
2023/01/05 08:00:28;;;;;;;1.65;0.28;;;;;;;12.05;64.17;100608.19;4950398;28;102144;-72
2023/01/05 08:02:55;;;;;;;3.50;0.50;;;;;;;11.86;63.98;100618.72;4949948;28;99254;-72
2023/01/05 08:05:22;;;;;;;1.33;0.20;;;;;;;11.90;64.24;100622.94;4944996;28;97172;-72
2023/01/05 08:07:49;;;;;;;0.70;0.43;;;;;;;11.63;64.31;100629.34;4948056;28;99293;-73
2023/01/05 08:10:30;;;;;;;1.00;0.30;;;;;;;12.06;63.61;100631.97;4945656;28;99138;-72
2023/01/05 08:15:46;;;;;;;0.90;0.30;;;;;;;12.38;62.43;100643.78;4947633;28;96850;-73
2023/01/05 08:18:12;;;;;;;1.58;0.20;;;;;;;12.01;63.21;100655.13;4948063;28;97009;-72
2023/01/05 08:20:40;;;;;;;1.77;0.28;;;;;;;11.83;64.04;100637.34;4948843;28;99492;-73
2023/01/05 08:23:07;;;;;;;1.10;0.25;;;;;;;11.92;64.20;100655.50;4949767;28;99159;-72
2023/01/05 08:25:33;;;;;;;0.95;0.20;;;;;;;12.17;63.66;100661.47;4952348;28;97218;-72
2023/01/05 08:28:00;;;;;;;0.93;0.20;;;;;;;12.46;62.56;100669.94;4952203;28;97236;-72
2023/01/05 08:30:27;;;;;;;2.22;0.38;;;;;;;12.05;63.61;100666.44;4946972;28;97930;-73
2023/01/05 08:32:53;;;;;;;1.83;0.50;;;;;;;12.04;62.96;100665.56;4950264;28;98941;-72
2023/01/05 08:35:19;;;;;;;0.75;0.20;;;;;;;12.27;63.21;100677.84;4948617;28;98251;-73
2023/01/05 08:37:47;;;;;;;0.75;0.20;;;;;;;12.16;62.85;100670.34;4949903;28;97111;-72
2023/01/05 08:40:14;;;;;;;0.65;0.20;;;;;;;12.45;63.10;100676.16;4952497;28;99118;-72
2023/01/05 08:42:40;;;;;;;2.25;0.40;;;;;;;12.50;62.76;100664.44;4947646;28;98230;-73
2023/01/05 08:45:08;;;;;;;4.68;0.30;;;;;;;12.84;62.20;100668.22;4950229;28;97160;-72
2023/01/05 08:47:35;;;;;;;1.55;0.60;;;;;;;12.95;61.81;100665.91;4948771;28;96944;-72
2023/01/05 08:50:02;;;;;;;1.55;0.20;;;;;;;12.86;61.61;100667.22;4950710;28;98852;-72
2023/01/05 08:52:28;;;;;;;0.73;0.17;;;;;;;12.95;60.32;100671.22;4949765;28;99004;-73
2023/01/05 08:54:56;;;;;;;0.32;0.10;;;;;;;12.85;60.99;100676.09;4952880;28;96793;-72
2023/01/05 08:57:22;;;;;;;0.40;0.13;;;;;;;12.50;61.56;100679.47;4951677;28;97008;-72
2023/01/05 08:59:49;;;;;;;2.20;0.45;;;;;;;12.18;63.48;100684.41;4947840;28;99261;-73
2023/01/05 09:02:15;;;;;;;0.70;0.35;;;;;;;12.65;62.05;100689.41;4942560;28;97844;-72
2023/01/05 09:04:42;;;;;;;2.00;0.30;;;;;;;12.88;61.01;100689.19;4944922;28;97865;-72
2023/01/05 09:07:08;;;;;;;1.05;0.20;;;;;;;12.13;62.59;100699.63;4948230;28;99891;-73
2023/01/05 09:09:35;;;;;;;0.68;0.30;;;;;;;12.08;63.27;100698.09;4948786;28;99053;-73
2023/01/05 09:12:03;;;;;;;2.28;0.60;;;;;;;11.88;64.00;100702.41;4947706;28;98638;-71
2023/01/05 09:14:29;;;;;;;0.93;0.32;;;;;;;12.16;63.27;100706.56;4948171;28;96775;-71
2023/01/05 09:16:55;;;;;;;0.73;0.30;;;;;;;12.63;62.12;100717.75;4949322;28;97213;-72
2023/01/05 09:19:22;;;;;;;1.30;0.30;;;;;;;13.19;59.99;100719.69;4944066;28;99190;-72
2023/01/05 09:21:49;;;;;;;1.00;0.30;;;;;;;13.19;59.58;100722.31;4944183;28;98874;-72
2023/01/05 09:24:15;;;;;;;1.77;0.30;;;;;;;13.01;60.11;100737.25;4947376;28;97283;-72
2023/01/05 09:26:42;;;;;;;0.30;0.20;;;;;;;13.30;59.02;100730.63;4954901;28;96950;-72
2023/01/05 09:29:10;;;;;;;5.57;0.35;;;;;;;13.47;58.33;100742.16;4942087;28;99023;-73
2023/01/05 09:31:37;;;;;;;2.50;0.38;;;;;;;13.59;57.99;100740.72;4948617;28;99639;-73
2023/01/05 09:34:04;;;;;;;1.13;0.40;;;;;;;13.03;58.63;100741.56;4941906;28;102117;-72
2023/01/05 09:36:31;;;;;;;1.25;0.30;;;;;;;13.31;58.55;100733.22;4945685;28;97259;-73
2023/01/05 09:38:57;;;;;;;2.65;0.65;;;;;;;13.28;58.15;100754.59;4942884;28;97734;-73
2023/01/05 09:41:27;;;;;;;0.55;0.30;;;;;;;13.09;57.98;100749.25;4940961;28;98815;-72
2023/01/05 09:43:58;;;;;;;2.05;0.30;;;;;;;12.97;57.90;100752.44;4944909;28;97645;-73
2023/01/05 09:46:30;;;;;;;2.25;0.40;;;;;;;12.78;57.49;100765.69;4947780;28;99026;-74
2023/01/05 09:49:00;;;;;;;2.38;0.40;;;;;;;12.90;57.68;100774.00;4947412;28;100109;-74
2023/01/05 09:51:27;;;;;;;3.83;0.35;;;;;;;13.04;55.56;100772.47;4948472;28;98787;-71
2023/01/05 09:53:54;;;;;;;3.72;0.63;;;;;;;12.41;57.95;100776.13;4949534;28;97238;-73
2023/01/05 09:56:27;;;;;;;1.77;0.50;;;;;;;12.86;56.33;100768.00;4954079;28;97210;-72
2023/01/05 09:59:01;;;;;;;3.75;0.55;;;;;;;12.56;56.52;100795.81;4951465;28;99234;-72
2023/01/05 10:01:32;;;;;;;1.30;0.40;;;;;;;12.47;56.32;100790.94;4950279;28;98911;-71
2023/01/05 10:04:02;;;;;;;3.17;0.45;;;;;;;12.60;55.56;100770.94;4950878;28;97930;-72
2023/01/05 10:06:33;;;;;;;3.05;0.60;;;;;;;12.54;56.28;100792.38;4951050;28;96967;-73
2023/01/05 10:09:02;;;;;;;3.33;0.70;;;;;;;12.45;56.14;100798.06;4949382;28;99207;-71
2023/01/05 10:14:28;;;;;;;3.25;0.47;;;;;;;12.71;54.43;100784.56;4951555;28;97168;-71
2023/01/05 10:16:56;;;;;;;2.10;0.47;;;;;;;12.06;54.84;100776.75;4952086;28;97399;-71
2023/01/05 10:19:22;;;;;;;3.08;0.60;;;;;;;11.51;57.10;100790.38;4947215;28;101452;-71
2023/01/05 10:21:58;;;;;;;1.98;0.50;;;;;;;11.78;56.35;100775.22;4949458;28;98044;-71
2023/01/05 10:24:42;;;;;;;2.45;0.30;;;;;;;11.81;56.27;100788.34;4952183;28;97153;-71
2023/01/05 10:27:18;;;;;;;5.03;0.90;;;;;;;12.10;55.57;100796.88;4953777;28;97586;-71
2023/01/05 10:29:47;;;;;;;4.25;0.65;;;;;;;12.28;55.40;100815.53;4951138;28;98956;-70
2023/01/05 10:32:24;;;;;;;4.85;0.68;;;;;;;12.31;54.26;100799.53;4950278;28;98837;-72
2023/01/05 10:34:56;;;;;;;5.38;0.63;;;;;;;12.02;54.54;100815.72;4954777;28;96746;-72
2023/01/05 10:37:45;;;;;;;1.48;0.30;;;;;;;11.83;55.10;100799.72;4954885;28;97659;-72
2023/01/05 10:40:26;;;;;;;3.58;0.60;;;;;;;12.12;54.26;100797.69;4950648;28;99040;-70
2023/01/05 10:43:14;;;;;;;3.97;0.88;;;;;;;12.32;54.42;100795.94;4944263;28;99325;-71
2023/01/05 10:45:41;;;;;;;7.07;1.08;;;;;;;12.29;54.16;100796.06;4949989;28;97016;-72
2023/01/05 10:48:13;;;;;;;5.10;0.75;;;;;;;12.58;53.42;100796.63;4948779;28;96938;-71
2023/01/05 10:50:42;;;;;;;4.30;0.68;;;;;;;11.91;55.04;100804.72;4950624;28;99252;-72
2023/01/05 10:53:11;;;;;;;2.83;0.80;;;;;;;12.26;54.23;100806.81;4946356;28;98491;-72
2023/01/05 10:55:45;;;;;;;2.97;0.55;;;;;;;12.42;54.17;100819.38;4950214;28;97813;-71
2023/01/05 10:58:25;;;;;;;6.82;0.63;;;;;;;12.71;52.92;100803.13;4947634;28;96799;-70
2023/01/05 11:00:58;;;;;;;3.67;0.50;;;;;;;12.48;53.86;100820.00;4946026;28;98917;-71
2023/01/05 11:03:35;;;;;;;3.72;0.60;;;;;;;12.52;53.34;100824.25;4949900;28;97871;-72
2023/01/05 11:06:01;;;;;;;7.25;0.90;;;;;;;12.34;54.12;100815.28;4949399;28;97751;-72
2023/01/05 11:08:29;;;;;;;4.65;0.70;;;;;;;12.57;53.77;100824.91;4952851;28;96832;-71
2023/01/05 11:10:57;;;;;;;5.57;0.70;;;;;;;12.64;53.16;100820.22;4951549;28;98882;-71
2023/01/05 11:13:32;;;;;;;6.78;0.50;;;;;;;12.49;53.79;100831.47;4949470;28;101824;-72
2023/01/05 11:16:03;;;;;;;6.90;0.70;;;;;;;12.26;54.11;100819.19;4948809;28;98192;-71
2023/01/05 11:18:35;;;;;;;5.10;0.65;;;;;;;12.38;54.49;100838.09;4953856;28;96858;-71
2023/01/05 11:21:08;;;;;;;2.67;0.45;;;;;;;12.83;53.30;100833.53;4946674;28;99113;-72
2023/01/05 11:23:36;;;;;;;4.22;0.70;;;;;;;12.33;54.24;100832.13;4948428;28;100033;-71
2023/01/05 11:26:19;;;;;;;5.50;0.68;;;;;;;12.38;54.15;100859.28;4947756;28;98289;-71
2023/01/05 11:28:58;;;;;;;3.92;0.70;;;;;;;12.71;53.07;100866.75;4950810;28;97475;-72
2023/01/05 11:31:27;;;;;;;3.92;0.90;;;;;;;11.87;55.16;100849.00;4947102;28;98928;-71
2023/01/05 11:34:07;;;;;;;3.70;0.80;;;;;;;11.86;55.83;100841.13;4949421;28;99470;-71
2023/01/05 11:36:34;;;;;;;6.53;0.80;;;;;;;12.14;55.20;100852.31;4948292;28;96865;-70
2023/01/05 11:39:00;;;;;;;6.80;0.70;;;;;;;12.23;55.10;100861.69;4951256;28;97459;-70
2023/01/05 11:41:27;;;;;;;8.45;0.90;;;;;;;12.51;53.98;100861.44;4945702;28;98312;-72
2023/01/05 11:43:54;;;;;;;9.52;0.88;;;;;;;12.97;53.22;100858.53;4946678;28;99062;-70
2023/01/05 11:46:22;;;;;;;7.13;0.80;;;;;;;13.16;52.27;100872.75;4951678;28;96816;-71
2023/01/05 11:48:52;;;;;;;5.80;0.95;;;;;;;12.67;53.37;100857.19;4954341;28;97067;-72
2023/01/05 11:51:37;;;;;;;4.22;0.85;;;;;;;12.45;53.84;100878.44;4948502;28;99445;-71
2023/01/05 11:54:03;;;;;;;5.38;0.68;;;;;;;12.61;53.69;100876.00;4949283;28;98803;-72
2023/01/05 11:56:30;;;;;;;4.40;0.50;;;;;;;12.55;53.60;100873.63;4952995;28;96865;-70
2023/01/05 11:58:58;;;;;;;5.68;0.98;;;;;;;12.43;53.81;100882.06;4953073;28;97449;-71
2023/01/05 12:01:52;;;;;;;2.63;0.60;;;;;;;12.37;54.01;100892.00;4950670;28;99362;-70
2023/01/05 12:04:29;;;;;;;6.70;1.88;;;;;;;12.36;54.29;100900.00;4951649;28;98771;-71
2023/01/05 12:07:16;;;;;;;6.38;1.00;;;;;;;12.00;55.44;100907.66;4952864;28;98013;-73
2023/01/05 12:09:48;;;;;;;4.88;0.65;;;;;;;11.97;55.83;100907.75;4952397;28;98466;-70